Terminal Aerodrome Forecast
Issued by NWS

Current Version | Previous Version | Graphics & Text | Print | Product List | Glossary On
Versions: 1 2 3 4 5 6 7 8 9 10 11 12 13 14 15 16 17 18 19 20 21 22 23 24 25 26
832
FTUS41 KPBZ 170505 AAA
TAFMGW
TAF AMD
KMGW 170505Z 1705/1724 33008KT P6SM OVC020
     FM171100 10003KT P6SM SCT035
     FM171800 17006KT 5SM -RASN OVC035
     FM172000 17005KT 2SM -RASN OVC020
     FM172200 17005KT 1 1/2SM -SNRA OVC015=

USA.gov is the U.S. government's official web portal to all federal, state and local government web resources and services.